createdAt,value
2022-08-07T17:58:46.538Z,33.61
2022-08-07T18:01:34.802Z,33.14
2022-08-07T18:04:24.656Z,33.55
2022-08-07T18:07:20.881Z,33.53
2022-08-07T18:10:05.775Z,33.53
2022-08-07T18:12:56.123Z,33.96
2022-08-07T18:15:32.658Z,33.63
2022-08-07T18:18:45.476Z,33.53
2022-08-07T18:21:37.319Z,33.28
2022-08-07T18:24:02.064Z,33.05
2022-08-07T18:27:09.899Z,33.02
2022-08-07T18:30:06.279Z,32.83
2022-08-07T18:33:38.891Z,33.09
2022-08-07T18:36:33.866Z,33.46
2022-08-07T18:40:08.670Z,34.02
2022-08-07T18:42:22.200Z,33.96
2022-08-07T18:45:43.342Z,34.43
2022-08-07T18:48:01.094Z,34.14
2022-08-07T18:51:03.018Z,34.23
2022-08-07T18:54:05.687Z,34.36
2022-08-07T18:57:29.871Z,34.22
2022-08-07T19:00:04.401Z,34.35
2022-08-07T19:03:00.239Z,34.40
2022-08-07T19:06:02.385Z,34.26
2022-08-07T19:08:30.108Z,34.51
2022-08-07T19:11:35.072Z,34.37
2022-08-07T19:14:11.650Z,34.09
2022-08-07T19:17:06.388Z,34.08
2022-08-07T19:19:48.830Z,34.06
2022-08-07T19:22:31.395Z,34.04
2022-08-07T19:25:05.770Z,34.09
2022-08-07T19:30:56.778Z,34.14
2022-08-07T19:31:00.843Z,33.51
2022-08-07T19:33:33.496Z,33.64
2022-08-07T19:36:05.240Z,33.37
2022-08-07T19:38:53.273Z,33.39
2022-08-07T19:41:44.465Z,33.48
2022-08-07T19:44:21.116Z,33.40
2022-08-07T19:46:57.561Z,33.68
2022-08-07T19:49:56.715Z,33.87
2022-08-07T19:52:22.610Z,33.73
2022-08-07T19:54:55.756Z,34.08
2022-08-07T19:58:00.143Z,34.48
2022-08-07T20:00:28.957Z,34.15
2022-08-07T20:03:02.963Z,33.77
2022-08-07T20:06:00.071Z,33.91
2022-08-07T20:08:28.441Z,33.93
2022-08-07T20:11:09.997Z,33.73
2022-08-07T20:13:43.443Z,34.05
2022-08-07T20:16:35.754Z,33.59
2022-08-07T20:19:10.584Z,33.45
2022-08-07T20:21:46.853Z,33.15
2022-08-07T20:24:20.632Z,33.81
2022-08-07T20:26:54.736Z,34.08
2022-08-07T20:29:49.051Z,34.14
2022-08-07T20:32:22.305Z,34.03
2022-08-07T20:34:52.785Z,34.44
2022-08-07T20:37:29.700Z,34.41
2022-08-07T20:40:31.114Z,34.76
2022-08-07T20:42:57.929Z,34.36
2022-08-07T20:45:32.978Z,34.04
2022-08-07T20:48:25.809Z,33.17
2022-08-07T20:51:00.640Z,32.85
2022-08-07T20:54:02.967Z,32.62
2022-08-07T20:56:26.891Z,32.88
2022-08-07T20:59:02.498Z,32.58
2022-08-07T21:01:45.851Z,32.94
2022-08-07T21:04:27.946Z,33.05
2022-08-07T21:07:04.490Z,32.68
2022-08-07T21:09:53.245Z,33.71
2022-08-07T21:12:31.641Z,34.16
2022-08-07T21:15:07.217Z,35.23
2022-08-07T21:18:17.097Z,35.50
2022-08-07T21:20:30.066Z,34.15
2022-08-07T21:23:07.414Z,35.00
2022-08-07T21:26:01.368Z,36.18
2022-08-07T21:28:50.193Z,37.10
2022-08-07T21:32:41.841Z,37.26
2022-08-07T21:34:31.766Z,38.00
2022-08-07T21:37:08.350Z,38.13
2022-08-07T21:39:51.710Z,38.28
2022-08-07T21:42:42.721Z,38.45
2022-08-07T21:46:10.269Z,38.07
2022-08-07T21:48:28.787Z,37.82
2022-08-07T21:51:20.456Z,37.67
2022-08-07T21:54:00.196Z,37.55
2022-08-07T21:56:46.955Z,38.11
2022-08-07T21:59:36.223Z,37.24
2022-08-07T22:02:28.519Z,37.46
2022-08-07T22:05:03.905Z,38.39
2022-08-07T22:07:58.921Z,38.44
2022-08-07T22:10:33.627Z,39.03
2022-08-07T22:13:08.990Z,39.27
2022-08-07T22:16:42.409Z,39.41
2022-08-07T22:18:38.434Z,39.29
2022-08-07T22:21:19.275Z,39.41
2022-08-07T22:23:56.213Z,40.58
2022-08-07T22:26:31.375Z,41.03
2022-08-07T22:29:08.908Z,41.51
2022-08-07T22:32:03.466Z,41.00
2022-08-07T22:34:52.883Z,40.94
2022-08-07T22:38:04.490Z,40.61
2022-08-07T22:40:31.016Z,40.66
2022-08-07T22:43:08.860Z,38.97
2022-08-07T22:46:40.452Z,38.27
2022-08-07T22:48:56.154Z,37.79
2022-08-07T22:51:51.897Z,37.26
2022-08-07T22:55:17.331Z,36.87
2022-08-07T22:58:05.530Z,37.26
2022-08-07T23:00:41.825Z,36.82
2022-08-07T23:03:57.885Z,36.49
2022-08-07T23:06:56.098Z,35.98
2022-08-07T23:10:03.848Z,35.90
2022-08-07T23:12:50.553Z,35.74
2022-08-07T23:16:04.926Z,35.70
2022-08-07T23:18:27.565Z,35.80
2022-08-07T23:21:16.294Z,36.09
2022-08-07T23:24:17.467Z,35.93
2022-08-07T23:26:59.395Z,36.53
2022-08-07T23:30:37.889Z,36.19
2022-08-07T23:34:20.818Z,36.12
2022-08-07T23:36:07.806Z,36.32
2022-08-07T23:38:56.265Z,36.49
2022-08-07T23:41:47.538Z,36.62
2022-08-07T23:44:41.868Z,36.68
2022-08-07T23:47:46.453Z,36.52
2022-08-07T23:50:38.108Z,36.64
2022-08-07T23:53:19.637Z,36.54
2022-08-07T23:55:57.289Z,36.83
2022-08-07T23:58:37.525Z,36.78
